James City, Pennsylvania
Current Conditions -  °F | °C
As of 12:53 PM on Friday 31 Oct 2014 (Local Time) from KBFD Reporting Station
Overcast Overcast  
Wind Chill: 39°   Ceiling: 1600
Heat Index: 42°   Visibility: 10mi
Dew Point: 36°   Wind: 5mph
Humidity: 79%   Direction: 140°SE
Pressure: 29.89"   Gusts: NA
Location:  41.62°N, 78.84°W
Report Text: KBFD 311653Z AUTO 14004KT 10SM BKN016 BKN022 OVC050 06/02 A2989 RMK AO2 RAB14E41 SLP131 P0001 T00560022
Loading
Personal Weather Stations






























Interactive Weather Map
Tropical Storm Tracking
New forecast layout! Learn more

10-Day Weather Forecast

Advertisements
Track Severe Weather on mobile